sensor_id;sensor_type;location;lat;lon;timestamp;temperature;humidity
8408;DHT22;4241;48.452;9.216;2022-07-03T00:01:34;18.00;99.90
8408;DHT22;4241;48.452;9.216;2022-07-03T00:04:01;18.10;99.90
8408;DHT22;4241;48.452;9.216;2022-07-03T00:06:28;18.00;99.90
8408;DHT22;4241;48.452;9.216;2022-07-03T00:08:57;17.90;99.90
8408;DHT22;4241;48.452;9.216;2022-07-03T00:11:25;18.00;99.90
8408;DHT22;4241;48.452;9.216;2022-07-03T00:13:52;17.90;99.90
8408;DHT22;4241;48.452;9.216;2022-07-03T00:16:19;17.90;99.90
8408;DHT22;4241;48.452;9.216;2022-07-03T00:18:46;18.00;99.90
8408;DHT22;4241;48.452;9.216;2022-07-03T00:21:19;18.00;99.90
8408;DHT22;4241;48.452;9.216;2022-07-03T00:23:51;17.80;99.90
8408;DHT22;4241;48.452;9.216;2022-07-03T00:26:20;17.80;99.90
8408;DHT22;4241;48.452;9.216;2022-07-03T00:28:48;17.90;99.90
8408;DHT22;4241;48.452;9.216;2022-07-03T00:31:16;17.90;99.90
8408;DHT22;4241;48.452;9.216;2022-07-03T00:33:43;17.70;99.90
8408;DHT22;4241;48.452;9.216;2022-07-03T00:36:12;17.70;99.90
8408;DHT22;4241;48.452;9.216;2022-07-03T00:38:40;17.70;99.90
8408;DHT22;4241;48.452;9.216;2022-07-03T00:41:07;16.80;99.90
8408;DHT22;4241;48.452;9.216;2022-07-03T00:43:36;17.60;99.90
8408;DHT22;4241;48.452;9.216;2022-07-03T00:46:07;17.50;99.90
8408;DHT22;4241;48.452;9.216;2022-07-03T00:48:37;17.40;99.90
8408;DHT22;4241;48.452;9.216;2022-07-03T00:51:06;17.20;99.90
8408;DHT22;4241;48.452;9.216;2022-07-03T00:53:36;17.20;99.90
8408;DHT22;4241;48.452;9.216;2022-07-03T00:56:04;17.20;99.90
8408;DHT22;4241;48.452;9.216;2022-07-03T00:58:32;17.30;99.90
8408;DHT22;4241;48.452;9.216;2022-07-03T01:01:01;17.20;99.90
8408;DHT22;4241;48.452;9.216;2022-07-03T01:03:32;17.10;99.90
8408;DHT22;4241;48.452;9.216;2022-07-03T01:06:07;16.90;99.90
8408;DHT22;4241;48.452;9.216;2022-07-03T01:08:41;16.90;99.90
8408;DHT22;4241;48.452;9.216;2022-07-03T01:11:14;16.80;99.90
8408;DHT22;4241;48.452;9.216;2022-07-03T01:13:56;16.80;99.90
8408;DHT22;4241;48.452;9.216;2022-07-03T01:16:32;16.80;99.90
8408;DHT22;4241;48.452;9.216;2022-07-03T01:19:10;16.90;99.90
8408;DHT22;4241;48.452;9.216;2022-07-03T01:21:49;17.00;99.90
8408;DHT22;4241;48.452;9.216;2022-07-03T01:27:13;16.80;99.90
8408;DHT22;4241;48.452;9.216;2022-07-03T01:29:50;17.00;99.90
8408;DHT22;4241;48.452;9.216;2022-07-03T01:32:19;17.10;99.90
8408;DHT22;4241;48.452;9.216;2022-07-03T01:34:52;17.00;99.90
8408;DHT22;4241;48.452;9.216;2022-07-03T01:37:22;17.00;99.90
8408;DHT22;4241;48.452;9.216;2022-07-03T01:39:53;16.90;99.90
8408;DHT22;4241;48.452;9.216;2022-07-03T01:42:23;16.90;99.90
8408;DHT22;4241;48.452;9.216;2022-07-03T01:44:51;16.90;99.90
8408;DHT22;4241;48.452;9.216;2022-07-03T01:47:21;16.90;99.90
8408;DHT22;4241;48.452;9.216;2022-07-03T01:49:50;17.00;99.90
8408;DHT22;4241;48.452;9.216;2022-07-03T01:52:20;16.90;99.90
8408;DHT22;4241;48.452;9.216;2022-07-03T01:54:48;16.80;99.90
8408;DHT22;4241;48.452;9.216;2022-07-03T01:57:15;17.00;99.90
8408;DHT22;4241;48.452;9.216;2022-07-03T01:59:44;16.90;99.90
8408;DHT22;4241;48.452;9.216;2022-07-03T02:02:20;16.90;99.90
8408;DHT22;4241;48.452;9.216;2022-07-03T02:04:59;16.80;99.90
8408;DHT22;4241;48.452;9.216;2022-07-03T02:07:33;16.70;99.90
8408;DHT22;4241;48.452;9.216;2022-07-03T02:10:03;16.70;99.90
8408;DHT22;4241;48.452;9.216;2022-07-03T02:12:37;16.60;99.90
8408;DHT22;4241;48.452;9.216;2022-07-03T02:15:09;16.70;99.90
8408;DHT22;4241;48.452;9.216;2022-07-03T02:17:38;16.80;99.90
8408;DHT22;4241;48.452;9.216;2022-07-03T02:20:07;17.00;99.90
8408;DHT22;4241;48.452;9.216;2022-07-03T02:22:36;16.90;99.90
8408;DHT22;4241;48.452;9.216;2022-07-03T02:25:06;17.00;99.90
8408;DHT22;4241;48.452;9.216;2022-07-03T02:27:41;16.90;99.90
8408;DHT22;4241;48.452;9.216;2022-07-03T02:30:11;16.90;99.90
8408;DHT22;4241;48.452;9.216;2022-07-03T02:32:43;16.90;99.90
8408;DHT22;4241;48.452;9.216;2022-07-03T02:35:13;16.90;99.90
8408;DHT22;4241;48.452;9.216;2022-07-03T02:37:45;16.80;99.90
8408;DHT22;4241;48.452;9.216;2022-07-03T02:40:21;16.90;99.90
8408;DHT22;4241;48.452;9.216;2022-07-03T02:43:02;16.90;99.90
8408;DHT22;4241;48.452;9.216;2022-07-03T02:45:38;16.70;99.90
8408;DHT22;4241;48.452;9.216;2022-07-03T02:48:12;16.70;99.90
8408;DHT22;4241;48.452;9.216;2022-07-03T02:50:46;16.60;99.90
8408;DHT22;4241;48.452;9.216;2022-07-03T02:53:21;16.60;99.90
8408;DHT22;4241;48.452;9.216;2022-07-03T02:55:56;16.60;99.90
8408;DHT22;4241;48.452;9.216;2022-07-03T02:58:57;16.40;99.90
8408;DHT22;4241;48.452;9.216;2022-07-03T03:01:34;16.60;99.90
8408;DHT22;4241;48.452;9.216;2022-07-03T03:04:09;16.30;99.90
8408;DHT22;4241;48.452;9.216;2022-07-03T03:06:37;16.30;99.90
8408;DHT22;4241;48.452;9.216;2022-07-03T03:09:05;16.30;99.90
8408;DHT22;4241;48.452;9.216;2022-07-03T03:11:41;16.30;99.90
8408;DHT22;4241;48.452;9.216;2022-07-03T03:14:10;16.30;99.90
8408;DHT22;4241;48.452;9.216;2022-07-03T03:16:44;16.20;99.90
8408;DHT22;4241;48.452;9.216;2022-07-03T03:19:12;16.20;99.90
8408;DHT22;4241;48.452;9.216;2022-07-03T03:21:45;16.20;99.90
8408;DHT22;4241;48.452;9.216;2022-07-03T03:24:18;16.10;99.90
8408;DHT22;4241;48.452;9.216;2022-07-03T03:26:45;16.00;99.90
8408;DHT22;4241;48.452;9.216;2022-07-03T03:29:12;15.90;99.90
8408;DHT22;4241;48.452;9.216;2022-07-03T03:31:40;15.90;99.90
8408;DHT22;4241;48.452;9.216;2022-07-03T03:34:07;16.00;99.90
8408;DHT22;4241;48.452;9.216;2022-07-03T03:36:36;16.00;99.90
8408;DHT22;4241;48.452;9.216;2022-07-03T03:39:03;16.10;99.90
8408;DHT22;4241;48.452;9.216;2022-07-03T03:41:30;16.20;99.90
8408;DHT22;4241;48.452;9.216;2022-07-03T03:43:57;16.20;99.90
8408;DHT22;4241;48.452;9.216;2022-07-03T03:46:24;16.20;99.90
8408;DHT22;4241;48.452;9.216;2022-07-03T03:48:52;16.20;99.90
8408;DHT22;4241;48.452;9.216;2022-07-03T03:51:19;16.30;99.90
8408;DHT22;4241;48.452;9.216;2022-07-03T03:53:46;16.30;99.90
8408;DHT22;4241;48.452;9.216;2022-07-03T03:56:13;16.40;99.90
8408;DHT22;4241;48.452;9.216;2022-07-03T03:58:41;16.40;99.90
8408;DHT22;4241;48.452;9.216;2022-07-03T04:01:10;16.20;99.90
8408;DHT22;4241;48.452;9.216;2022-07-03T04:03:38;16.10;99.90
8408;DHT22;4241;48.452;9.216;2022-07-03T04:06:07;16.10;99.90
8408;DHT22;4241;48.452;9.216;2022-07-03T04:08:34;16.10;99.90
8408;DHT22;4241;48.452;9.216;2022-07-03T04:11:00;16.30;99.90
8408;DHT22;4241;48.452;9.216;2022-07-03T04:13:27;16.00;99.90
8408;DHT22;4241;48.452;9.216;2022-07-03T04:15:55;16.30;99.90
8408;DHT22;4241;48.452;9.216;2022-07-03T04:18:22;16.30;99.90
8408;DHT22;4241;48.452;9.216;2022-07-03T04:20:49;16.30;99.90
8408;DHT22;4241;48.452;9.216;2022-07-03T04:23:18;16.30;99.90
8408;DHT22;4241;48.452;9.216;2022-07-03T04:25:45;16.30;99.90
8408;DHT22;4241;48.452;9.216;2022-07-03T04:28:11;16.60;99.90
8408;DHT22;4241;48.452;9.216;2022-07-03T04:30:39;16.20;99.90
8408;DHT22;4241;48.452;9.216;2022-07-03T04:33:06;16.30;99.90
8408;DHT22;4241;48.452;9.216;2022-07-03T04:35:33;16.10;99.90
8408;DHT22;4241;48.452;9.216;2022-07-03T04:37:59;16.30;99.90
8408;DHT22;4241;48.452;9.216;2022-07-03T04:40:28;16.40;99.90
8408;DHT22;4241;48.452;9.216;2022-07-03T04:42:55;16.40;99.90
8408;DHT22;4241;48.452;9.216;2022-07-03T04:45:22;16.30;99.90
8408;DHT22;4241;48.452;9.216;2022-07-03T04:47:48;16.60;99.90
8408;DHT22;4241;48.452;9.216;2022-07-03T04:50:15;16.60;99.90
8408;DHT22;4241;48.452;9.216;2022-07-03T04:52:42;16.50;99.90
8408;DHT22;4241;48.452;9.216;2022-07-03T04:55:09;16.50;99.90
8408;DHT22;4241;48.452;9.216;2022-07-03T04:57:38;16.30;99.90
8408;DHT22;4241;48.452;9.216;2022-07-03T05:00:06;16.30;99.90
8408;DHT22;4241;48.452;9.216;2022-07-03T05:02:33;16.30;99.90
8408;DHT22;4241;48.452;9.216;2022-07-03T05:05:00;16.40;99.90
8408;DHT22;4241;48.452;9.216;2022-07-03T05:07:28;16.40;99.90
8408;DHT22;4241;48.452;9.216;2022-07-03T05:09:55;16.60;99.90
8408;DHT22;4241;48.452;9.216;2022-07-03T05:12:22;16.70;99.90
8408;DHT22;4241;48.452;9.216;2022-07-03T05:14:50;16.80;99.90
8408;DHT22;4241;48.452;9.216;2022-07-03T05:17:17;16.80;99.90
8408;DHT22;4241;48.452;9.216;2022-07-03T05:19:45;16.80;99.90
8408;DHT22;4241;48.452;9.216;2022-07-03T05:22:12;16.80;99.90
8408;DHT22;4241;48.452;9.216;2022-07-03T05:24:38;16.90;99.90
8408;DHT22;4241;48.452;9.216;2022-07-03T05:27:05;17.00;99.90
8408;DHT22;4241;48.452;9.216;2022-07-03T05:29:32;17.00;99.90
8408;DHT22;4241;48.452;9.216;2022-07-03T05:32:00;17.10;99.90
8408;DHT22;4241;48.452;9.216;2022-07-03T05:34:27;17.20;99.90
8408;DHT22;4241;48.452;9.216;2022-07-03T05:36:54;17.10;99.90
8408;DHT22;4241;48.452;9.216;2022-07-03T05:39:22;17.40;99.90
8408;DHT22;4241;48.452;9.216;2022-07-03T05:42:04;17.50;99.90
8408;DHT22;4241;48.452;9.216;2022-07-03T05:44:31;17.70;99.90
8408;DHT22;4241;48.452;9.216;2022-07-03T05:46:59;17.70;99.90
8408;DHT22;4241;48.452;9.216;2022-07-03T05:49:26;17.80;99.90
8408;DHT22;4241;48.452;9.216;2022-07-03T05:51:53;17.90;99.90
8408;DHT22;4241;48.452;9.216;2022-07-03T05:54:20;18.10;99.90
8408;DHT22;4241;48.452;9.216;2022-07-03T05:56:47;18.10;99.90
8408;DHT22;4241;48.452;9.216;2022-07-03T05:59:14;18.40;99.90
8408;DHT22;4241;48.452;9.216;2022-07-03T06:01:41;18.60;99.90
8408;DHT22;4241;48.452;9.216;2022-07-03T06:04:09;18.70;99.90
8408;DHT22;4241;48.452;9.216;2022-07-03T06:06:36;18.80;99.90
8408;DHT22;4241;48.452;9.216;2022-07-03T06:09:03;18.90;99.90
8408;DHT22;4241;48.452;9.216;2022-07-03T06:11:30;19.20;99.90
8408;DHT22;4241;48.452;9.216;2022-07-03T06:13:57;19.30;99.90
8408;DHT22;4241;48.452;9.216;2022-07-03T06:16:27;19.40;99.90
8408;DHT22;4241;48.452;9.216;2022-07-03T06:18:54;19.50;99.90
8408;DHT22;4241;48.452;9.216;2022-07-03T06:21:22;19.70;99.90
8408;DHT22;4241;48.452;9.216;2022-07-03T06:23:49;19.90;99.90
8408;DHT22;4241;48.452;9.216;2022-07-03T06:26:16;20.20;99.90
8408;DHT22;4241;48.452;9.216;2022-07-03T06:28:43;20.30;99.90
8408;DHT22;4241;48.452;9.216;2022-07-03T06:31:11;20.70;99.90
8408;DHT22;4241;48.452;9.216;2022-07-03T06:33:37;21.00;99.90
8408;DHT22;4241;48.452;9.216;2022-07-03T06:36:05;21.10;99.90
8408;DHT22;4241;48.452;9.216;2022-07-03T06:38:33;21.20;99.90
8408;DHT22;4241;48.452;9.216;2022-07-03T06:41:00;21.40;99.90
8408;DHT22;4241;48.452;9.216;2022-07-03T06:43:27;21.50;99.90
8408;DHT22;4241;48.452;9.216;2022-07-03T06:45:53;21.80;99.90
8408;DHT22;4241;48.452;9.216;2022-07-03T06:48:20;21.80;99.90
8408;DHT22;4241;48.452;9.216;2022-07-03T06:50:47;22.00;99.90
8408;DHT22;4241;48.452;9.216;2022-07-03T06:53:14;22.30;99.90
8408;DHT22;4241;48.452;9.216;2022-07-03T06:55:42;22.50;99.90
8408;DHT22;4241;48.452;9.216;2022-07-03T06:58:09;22.70;99.90
8408;DHT22;4241;48.452;9.216;2022-07-03T07:00:36;22.70;99.90
8408;DHT22;4241;48.452;9.216;2022-07-03T07:03:04;22.80;99.90
8408;DHT22;4241;48.452;9.216;2022-07-03T07:05:31;23.00;99.90
8408;DHT22;4241;48.452;9.216;2022-07-03T07:07:58;23.20;99.90
8408;DHT22;4241;48.452;9.216;2022-07-03T07:10:25;23.20;99.90
8408;DHT22;4241;48.452;9.216;2022-07-03T07:12:53;23.20;99.90
8408;DHT22;4241;48.452;9.216;2022-07-03T07:15:20;23.60;99.90
8408;DHT22;4241;48.452;9.216;2022-07-03T07:17:47;23.70;99.90
8408;DHT22;4241;48.452;9.216;2022-07-03T07:20:13;24.00;99.90
8408;DHT22;4241;48.452;9.216;2022-07-03T07:22:40;24.10;99.90
8408;DHT22;4241;48.452;9.216;2022-07-03T07:25:07;24.10;99.90
8408;DHT22;4241;48.452;9.216;2022-07-03T07:27:34;24.30;99.90
8408;DHT22;4241;48.452;9.216;2022-07-03T07:30:04;24.50;99.90
8408;DHT22;4241;48.452;9.216;2022-07-03T07:32:31;24.60;99.90
8408;DHT22;4241;48.452;9.216;2022-07-03T07:34:58;24.70;99.90
8408;DHT22;4241;48.452;9.216;2022-07-03T07:37:25;24.70;99.90
8408;DHT22;4241;48.452;9.216;2022-07-03T07:39:52;24.90;99.90
8408;DHT22;4241;48.452;9.216;2022-07-03T07:42:18;25.00;99.90
8408;DHT22;4241;48.452;9.216;2022-07-03T07:44:45;24.90;99.90
8408;DHT22;4241;48.452;9.216;2022-07-03T07:47:13;24.00;99.90
8408;DHT22;4241;48.452;9.216;2022-07-03T07:49:40;25.10;99.90
8408;DHT22;4241;48.452;9.216;2022-07-03T07:52:07;24.90;99.90
8408;DHT22;4241;48.452;9.216;2022-07-03T07:54:34;25.10;99.90
8408;DHT22;4241;48.452;9.216;2022-07-03T07:57:01;25.30;99.90
8408;DHT22;4241;48.452;9.216;2022-07-03T07:59:28;25.20;99.90
8408;DHT22;4241;48.452;9.216;2022-07-03T08:01:55;25.10;99.90
8408;DHT22;4241;48.452;9.216;2022-07-03T08:04:40;25.30;99.90
8408;DHT22;4241;48.452;9.216;2022-07-03T08:07:24;25.70;99.90
8408;DHT22;4241;48.452;9.216;2022-07-03T08:09:51;25.90;99.90
8408;DHT22;4241;48.452;9.216;2022-07-03T08:12:19;25.90;99.70
8408;DHT22;4241;48.452;9.216;2022-07-03T08:14:45;25.90;99.90
8408;DHT22;4241;48.452;9.216;2022-07-03T08:17:12;25.90;99.90
8408;DHT22;4241;48.452;9.216;2022-07-03T08:19:41;26.10;99.90
8408;DHT22;4241;48.452;9.216;2022-07-03T08:22:07;26.00;99.90
8408;DHT22;4241;48.452;9.216;2022-07-03T08:24:34;26.10;99.90
8408;DHT22;4241;48.452;9.216;2022-07-03T08:27:03;26.20;99.90
8408;DHT22;4241;48.452;9.216;2022-07-03T08:29:30;26.30;99.90
8408;DHT22;4241;48.452;9.216;2022-07-03T08:31:57;26.50;99.90
8408;DHT22;4241;48.452;9.216;2022-07-03T08:34:30;26.70;99.90
8408;DHT22;4241;48.452;9.216;2022-07-03T08:36:58;26.80;97.50
8408;DHT22;4241;48.452;9.216;2022-07-03T08:39:25;26.80;99.90
8408;DHT22;4241;48.452;9.216;2022-07-03T08:41:53;26.90;98.40
8408;DHT22;4241;48.452;9.216;2022-07-03T08:44:21;26.70;97.00
8408;DHT22;4241;48.452;9.216;2022-07-03T08:46:49;26.90;99.90
8408;DHT22;4241;48.452;9.216;2022-07-03T08:49:18;27.10;99.90
8408;DHT22;4241;48.452;9.216;2022-07-03T08:51:45;26.90;92.90
8408;DHT22;4241;48.452;9.216;2022-07-03T08:54:13;27.20;93.90
8408;DHT22;4241;48.452;9.216;2022-07-03T08:56:40;27.30;92.90
8408;DHT22;4241;48.452;9.216;2022-07-03T08:59:07;27.30;88.60
8408;DHT22;4241;48.452;9.216;2022-07-03T09:01:34;27.30;93.30
8408;DHT22;4241;48.452;9.216;2022-07-03T09:04:08;27.40;96.20
8408;DHT22;4241;48.452;9.216;2022-07-03T09:06:36;27.60;94.20
8408;DHT22;4241;48.452;9.216;2022-07-03T09:09:06;27.70;95.00
8408;DHT22;4241;48.452;9.216;2022-07-03T09:11:35;27.50;87.40
8408;DHT22;4241;48.452;9.216;2022-07-03T09:14:02;27.20;90.80
8408;DHT22;4241;48.452;9.216;2022-07-03T09:16:33;27.40;88.10
8408;DHT22;4241;48.452;9.216;2022-07-03T09:19:00;27.60;89.00
8408;DHT22;4241;48.452;9.216;2022-07-03T09:21:35;27.40;89.20
8408;DHT22;4241;48.452;9.216;2022-07-03T09:24:03;27.80;90.60
8408;DHT22;4241;48.452;9.216;2022-07-03T09:26:31;28.00;83.90
8408;DHT22;4241;48.452;9.216;2022-07-03T09:28:59;27.50;78.70
8408;DHT22;4241;48.452;9.216;2022-07-03T09:31:28;27.90;88.20
8408;DHT22;4241;48.452;9.216;2022-07-03T09:33:57;28.10;85.20
8408;DHT22;4241;48.452;9.216;2022-07-03T09:36:38;28.10;83.80
8408;DHT22;4241;48.452;9.216;2022-07-03T09:39:16;27.40;78.70
8408;DHT22;4241;48.452;9.216;2022-07-03T09:41:55;27.80;82.20
8408;DHT22;4241;48.452;9.216;2022-07-03T09:44:30;27.90;84.50
8408;DHT22;4241;48.452;9.216;2022-07-03T09:47:11;28.40;70.90
8408;DHT22;4241;48.452;9.216;2022-07-03T09:49:49;28.30;64.80
8408;DHT22;4241;48.452;9.216;2022-07-03T09:52:29;28.30;70.20
8408;DHT22;4241;48.452;9.216;2022-07-03T09:54:57;28.50;75.00
8408;DHT22;4241;48.452;9.216;2022-07-03T09:57:27;28.60;70.60
8408;DHT22;4241;48.452;9.216;2022-07-03T10:00:11;28.70;72.00
8408;DHT22;4241;48.452;9.216;2022-07-03T10:02:52;28.60;76.20
8408;DHT22;4241;48.452;9.216;2022-07-03T10:05:20;28.70;79.10
8408;DHT22;4241;48.452;9.216;2022-07-03T10:07:52;29.00;74.10
8408;DHT22;4241;48.452;9.216;2022-07-03T10:10:20;29.10;87.20
8408;DHT22;4241;48.452;9.216;2022-07-03T10:12:49;29.20;78.10
8408;DHT22;4241;48.452;9.216;2022-07-03T10:15:18;28.90;68.00
8408;DHT22;4241;48.452;9.216;2022-07-03T10:17:48;28.30;80.10
8408;DHT22;4241;48.452;9.216;2022-07-03T10:20:18;28.90;72.00
8408;DHT22;4241;48.452;9.216;2022-07-03T10:22:48;29.10;70.10
8408;DHT22;4241;48.452;9.216;2022-07-03T10:25:16;28.60;65.00
8408;DHT22;4241;48.452;9.216;2022-07-03T10:27:44;29.00;81.00
8408;DHT22;4241;48.452;9.216;2022-07-03T10:30:13;29.30;66.80
8408;DHT22;4241;48.452;9.216;2022-07-03T10:32:43;29.30;72.70
8408;DHT22;4241;48.452;9.216;2022-07-03T10:35:11;29.50;72.90
8408;DHT22;4241;48.452;9.216;2022-07-03T10:37:46;29.60;72.80
8408;DHT22;4241;48.452;9.216;2022-07-03T10:40:22;29.40;77.00
8408;DHT22;4241;48.452;9.216;2022-07-03T10:43:14;29.30;75.30
8408;DHT22;4241;48.452;9.216;2022-07-03T10:46:10;29.90;70.10
8408;DHT22;4241;48.452;9.216;2022-07-03T10:49:00;29.20;62.60
8408;DHT22;4241;48.452;9.216;2022-07-03T10:51:29;29.40;69.60
8408;DHT22;4241;48.452;9.216;2022-07-03T10:54:15;29.90;73.80
8408;DHT22;4241;48.452;9.216;2022-07-03T10:57:08;29.10;63.20
8408;DHT22;4241;48.452;9.216;2022-07-03T11:00:12;29.50;77.30
8408;DHT22;4241;48.452;9.216;2022-07-03T11:02:40;29.80;72.30
8408;DHT22;4241;48.452;9.216;2022-07-03T11:05:22;30.20;75.40
8408;DHT22;4241;48.452;9.216;2022-07-03T11:08:08;30.20;79.80
8408;DHT22;4241;48.452;9.216;2022-07-03T11:10:39;30.00;72.80
8408;DHT22;4241;48.452;9.216;2022-07-03T11:13:16;30.40;75.80
8408;DHT22;4241;48.452;9.216;2022-07-03T11:15:48;29.00;71.30
8408;DHT22;4241;48.452;9.216;2022-07-03T11:18:22;29.60;67.10
8408;DHT22;4241;48.452;9.216;2022-07-03T11:27:18;30.40;58.80
8408;DHT22;4241;48.452;9.216;2022-07-03T11:29:50;30.10;76.10
8408;DHT22;4241;48.452;9.216;2022-07-03T11:35:49;30.90;63.00
8408;DHT22;4241;48.452;9.216;2022-07-03T11:38:24;30.80;66.40
8408;DHT22;4241;48.452;9.216;2022-07-03T11:40:53;30.50;74.70
8408;DHT22;4241;48.452;9.216;2022-07-03T11:43:20;30.80;71.50
8408;DHT22;4241;48.452;9.216;2022-07-03T11:45:49;30.80;67.10
8408;DHT22;4241;48.452;9.216;2022-07-03T11:48:19;30.70;70.50
8408;DHT22;4241;48.452;9.216;2022-07-03T11:50:47;31.40;60.60
8408;DHT22;4241;48.452;9.216;2022-07-03T11:53:26;31.50;66.80
8408;DHT22;4241;48.452;9.216;2022-07-03T11:55:56;31.60;67.20
8408;DHT22;4241;48.452;9.216;2022-07-03T11:58:24;31.20;67.50
8408;DHT22;4241;48.452;9.216;2022-07-03T12:00:51;31.30;61.60
8408;DHT22;4241;48.452;9.216;2022-07-03T12:03:24;30.30;62.70
8408;DHT22;4241;48.452;9.216;2022-07-03T12:05:56;31.00;75.10
8408;DHT22;4241;48.452;9.216;2022-07-03T12:08:32;31.30;72.40
8408;DHT22;4241;48.452;9.216;2022-07-03T12:11:02;31.60;69.60
8408;DHT22;4241;48.452;9.216;2022-07-03T12:13:30;32.00;67.10
8408;DHT22;4241;48.452;9.216;2022-07-03T12:16:06;31.90;61.10
8408;DHT22;4241;48.452;9.216;2022-07-03T12:18:49;31.90;70.20
8408;DHT22;4241;48.452;9.216;2022-07-03T12:21:18;31.80;61.90
8408;DHT22;4241;48.452;9.216;2022-07-03T12:23:48;31.70;63.90
8408;DHT22;4241;48.452;9.216;2022-07-03T12:26:27;32.00;65.70
8408;DHT22;4241;48.452;9.216;2022-07-03T12:28:56;31.40;60.60
8408;DHT22;4241;48.452;9.216;2022-07-03T12:31:23;31.00;59.70
8408;DHT22;4241;48.452;9.216;2022-07-03T12:33:51;31.80;64.70
8408;DHT22;4241;48.452;9.216;2022-07-03T12:36:18;32.10;66.00
8408;DHT22;4241;48.452;9.216;2022-07-03T12:38:49;32.20;60.70
8408;DHT22;4241;48.452;9.216;2022-07-03T12:41:18;32.20;68.30
8408;DHT22;4241;48.452;9.216;2022-07-03T12:43:46;31.60;61.40
8408;DHT22;4241;48.452;9.216;2022-07-03T12:46:21;31.30;57.60
8408;DHT22;4241;48.452;9.216;2022-07-03T12:48:49;31.60;60.10
8408;DHT22;4241;48.452;9.216;2022-07-03T12:51:35;32.00;61.50
8408;DHT22;4241;48.452;9.216;2022-07-03T12:54:04;31.70;65.30
8408;DHT22;4241;48.452;9.216;2022-07-03T12:56:31;31.80;60.60
8408;DHT22;4241;48.452;9.216;2022-07-03T12:58:58;31.60;64.80
8408;DHT22;4241;48.452;9.216;2022-07-03T13:01:43;32.10;58.30
8408;DHT22;4241;48.452;9.216;2022-07-03T13:04:12;31.90;62.00
8408;DHT22;4241;48.452;9.216;2022-07-03T13:06:43;31.90;57.20
8408;DHT22;4241;48.452;9.216;2022-07-03T13:09:13;30.90;59.40
8408;DHT22;4241;48.452;9.216;2022-07-03T13:11:41;31.30;64.30
8408;DHT22;4241;48.452;9.216;2022-07-03T13:14:10;32.20;63.00
8408;DHT22;4241;48.452;9.216;2022-07-03T13:16:43;32.00;59.50
8408;DHT22;4241;48.452;9.216;2022-07-03T13:19:11;31.90;61.70
8408;DHT22;4241;48.452;9.216;2022-07-03T13:21:38;32.00;69.50
8408;DHT22;4241;48.452;9.216;2022-07-03T13:24:06;31.50;59.70
8408;DHT22;4241;48.452;9.216;2022-07-03T13:26:35;32.10;70.80
8408;DHT22;4241;48.452;9.216;2022-07-03T13:29:02;32.20;61.60
8408;DHT22;4241;48.452;9.216;2022-07-03T13:31:30;31.90;62.40
8408;DHT22;4241;48.452;9.216;2022-07-03T13:33:57;32.10;68.80
8408;DHT22;4241;48.452;9.216;2022-07-03T13:36:25;31.60;60.40
8408;DHT22;4241;48.452;9.216;2022-07-03T13:38:52;32.00;61.60
8408;DHT22;4241;48.452;9.216;2022-07-03T13:41:19;32.40;59.60
8408;DHT22;4241;48.452;9.216;2022-07-03T13:43:50;31.90;57.00
8408;DHT22;4241;48.452;9.216;2022-07-03T13:46:17;32.00;61.90
8408;DHT22;4241;48.452;9.216;2022-07-03T13:48:44;31.60;62.80
8408;DHT22;4241;48.452;9.216;2022-07-03T13:51:11;31.80;60.70
8408;DHT22;4241;48.452;9.216;2022-07-03T13:53:38;32.30;60.90
8408;DHT22;4241;48.452;9.216;2022-07-03T13:56:05;32.30;61.90
8408;DHT22;4241;48.452;9.216;2022-07-03T13:58:32;32.00;58.70
8408;DHT22;4241;48.452;9.216;2022-07-03T14:01:00;31.40;57.00
8408;DHT22;4241;48.452;9.216;2022-07-03T14:03:27;31.60;64.10
8408;DHT22;4241;48.452;9.216;2022-07-03T14:05:54;32.00;62.10
8408;DHT22;4241;48.452;9.216;2022-07-03T14:08:22;31.80;56.30
8408;DHT22;4241;48.452;9.216;2022-07-03T14:10:48;31.40;58.80
8408;DHT22;4241;48.452;9.216;2022-07-03T14:13:15;30.80;57.30
8408;DHT22;4241;48.452;9.216;2022-07-03T14:15:42;31.60;59.80
8408;DHT22;4241;48.452;9.216;2022-07-03T14:18:10;31.80;70.00
8408;DHT22;4241;48.452;9.216;2022-07-03T14:20:37;32.20;56.00
8408;DHT22;4241;48.452;9.216;2022-07-03T14:23:04;32.00;62.80
8408;DHT22;4241;48.452;9.216;2022-07-03T14:25:31;31.60;64.00
8408;DHT22;4241;48.452;9.216;2022-07-03T14:27:58;31.10;56.00
8408;DHT22;4241;48.452;9.216;2022-07-03T14:30:42;31.50;58.70
8408;DHT22;4241;48.452;9.216;2022-07-03T14:33:27;32.10;55.10
8408;DHT22;4241;48.452;9.216;2022-07-03T14:35:54;32.40;59.30
8408;DHT22;4241;48.452;9.216;2022-07-03T14:38:21;32.50;59.60
8408;DHT22;4241;48.452;9.216;2022-07-03T14:40:48;32.50;64.20
8408;DHT22;4241;48.452;9.216;2022-07-03T14:43:15;32.60;60.40
8408;DHT22;4241;48.452;9.216;2022-07-03T14:45:42;32.50;60.00
8408;DHT22;4241;48.452;9.216;2022-07-03T14:48:08;32.20;53.10
8408;DHT22;4241;48.452;9.216;2022-07-03T14:50:37;32.10;60.30
8408;DHT22;4241;48.452;9.216;2022-07-03T14:53:05;31.60;56.80
8408;DHT22;4241;48.452;9.216;2022-07-03T14:55:37;32.40;56.60
8408;DHT22;4241;48.452;9.216;2022-07-03T14:58:09;32.80;61.10
8408;DHT22;4241;48.452;9.216;2022-07-03T15:00:41;32.50;57.30
8408;DHT22;4241;48.452;9.216;2022-07-03T15:03:12;32.80;54.70
8408;DHT22;4241;48.452;9.216;2022-07-03T15:05:43;33.10;56.60
8408;DHT22;4241;48.452;9.216;2022-07-03T15:08:20;32.90;60.80
8408;DHT22;4241;48.452;9.216;2022-07-03T15:10:53;32.90;53.00
8408;DHT22;4241;48.452;9.216;2022-07-03T15:13:20;32.60;57.10
8408;DHT22;4241;48.452;9.216;2022-07-03T15:15:48;32.50;54.60
8408;DHT22;4241;48.452;9.216;2022-07-03T15:18:18;32.90;57.10
8408;DHT22;4241;48.452;9.216;2022-07-03T15:20:50;33.00;53.60
8408;DHT22;4241;48.452;9.216;2022-07-03T15:23:18;32.80;51.50
8408;DHT22;4241;48.452;9.216;2022-07-03T15:25:46;33.10;54.70
8408;DHT22;4241;48.452;9.216;2022-07-03T15:28:14;33.20;58.40
8408;DHT22;4241;48.452;9.216;2022-07-03T15:30:48;33.20;55.10
8408;DHT22;4241;48.452;9.216;2022-07-03T15:33:16;33.40;53.60
8408;DHT22;4241;48.452;9.216;2022-07-03T15:35:48;33.80;58.70
8408;DHT22;4241;48.452;9.216;2022-07-03T15:38:20;33.60;56.50
8408;DHT22;4241;48.452;9.216;2022-07-03T15:40:53;33.80;54.80
8408;DHT22;4241;48.452;9.216;2022-07-03T15:43:51;33.50;49.80
8408;DHT22;4241;48.452;9.216;2022-07-03T15:46:30;33.70;53.30
8408;DHT22;4241;48.452;9.216;2022-07-03T15:49:23;33.40;58.20
8408;DHT22;4241;48.452;9.216;2022-07-03T15:52:06;33.90;54.60
8408;DHT22;4241;48.452;9.216;2022-07-03T15:54:47;34.10;55.60
8408;DHT22;4241;48.452;9.216;2022-07-03T15:57:24;33.10;52.70
8408;DHT22;4241;48.452;9.216;2022-07-03T15:59:57;33.50;52.00
8408;DHT22;4241;48.452;9.216;2022-07-03T16:02:29;33.80;52.00
8408;DHT22;4241;48.452;9.216;2022-07-03T16:05:04;33.90;53.00
8408;DHT22;4241;48.452;9.216;2022-07-03T16:07:35;34.00;55.70
8408;DHT22;4241;48.452;9.216;2022-07-03T16:10:04;33.80;53.70
8408;DHT22;4241;48.452;9.216;2022-07-03T16:12:31;33.70;52.40
8408;DHT22;4241;48.452;9.216;2022-07-03T16:14:59;33.20;50.30
8408;DHT22;4241;48.452;9.216;2022-07-03T16:17:27;33.40;55.20
8408;DHT22;4241;48.452;9.216;2022-07-03T16:19:55;34.10;49.50
8408;DHT22;4241;48.452;9.216;2022-07-03T16:22:24;34.20;51.00
8408;DHT22;4241;48.452;9.216;2022-07-03T16:24:55;33.20;47.50
8408;DHT22;4241;48.452;9.216;2022-07-03T16:27:23;32.10;52.00
8408;DHT22;4241;48.452;9.216;2022-07-03T16:29:50;31.40;51.00
8408;DHT22;4241;48.452;9.216;2022-07-03T16:32:19;31.00;51.70
8408;DHT22;4241;48.452;9.216;2022-07-03T16:34:52;30.90;53.60